createdAt,value
2023-02-09T00:00:12.936Z,19.40
2023-02-09T00:01:12.908Z,19.40
2023-02-09T00:02:13.004Z,18.70
2023-02-09T00:03:12.899Z,18.80
2023-02-09T00:04:12.899Z,18.20
2023-02-09T00:05:12.903Z,18.00
2023-02-09T00:06:12.864Z,18.20
2023-02-09T00:07:12.818Z,18.40
2023-02-09T00:08:12.841Z,18.80
2023-02-09T00:09:12.813Z,17.20
2023-02-09T00:10:12.812Z,19.60
2023-02-09T00:11:12.767Z,19.80
2023-02-09T00:12:12.788Z,19.20
2023-02-09T00:13:12.753Z,19.60
2023-02-09T00:14:12.801Z,20.10
2023-02-09T00:15:12.729Z,18.80
2023-02-09T00:16:12.756Z,17.80
2023-02-09T00:17:12.687Z,17.60
2023-02-09T00:18:12.714Z,21.10
2023-02-09T00:19:12.665Z,20.60
2023-02-09T00:20:12.707Z,19.90
2023-02-09T00:21:12.652Z,17.40
2023-02-09T00:22:12.653Z,18.90
2023-02-09T00:23:12.622Z,20.40
2023-02-09T00:24:12.637Z,20.00
2023-02-09T00:25:12.604Z,19.40
2023-02-09T00:26:12.624Z,21.10
2023-02-09T00:27:12.562Z,19.60
2023-02-09T00:28:12.614Z,20.50
2023-02-09T00:29:12.542Z,18.80
2023-02-09T00:30:12.579Z,21.50
2023-02-09T00:31:12.638Z,21.60
2023-02-09T00:32:12.586Z,21.60
2023-02-09T00:33:12.497Z,20.90
2023-02-09T00:34:12.517Z,20.60
2023-02-09T00:35:12.490Z,19.60
2023-02-09T00:36:12.492Z,20.10
2023-02-09T00:37:12.440Z,18.90
2023-02-09T00:38:12.476Z,18.40
2023-02-09T00:39:12.442Z,18.80
2023-02-09T00:40:12.446Z,18.10
2023-02-09T00:41:12.412Z,18.20
2023-02-09T00:42:12.377Z,18.50
2023-02-09T00:43:12.396Z,18.10
2023-02-09T00:44:12.349Z,18.00
2023-02-09T00:45:12.387Z,19.00
2023-02-09T00:46:12.374Z,19.20
2023-02-09T00:47:12.342Z,17.40
2023-02-09T00:48:12.301Z,18.90
2023-02-09T00:49:12.306Z,19.40
2023-02-09T00:50:12.275Z,19.80
2023-02-09T00:51:12.315Z,19.70
2023-02-09T00:52:12.257Z,19.10
2023-02-09T00:53:12.284Z,22.40
2023-02-09T00:54:12.214Z,23.20
2023-02-09T00:55:12.234Z,27.70
2023-02-09T00:56:12.200Z,29.70
2023-02-09T00:57:12.203Z,29.90
2023-02-09T00:58:12.182Z,29.50
2023-02-09T00:59:12.210Z,28.60
2023-02-09T01:00:12.156Z,28.30
2023-02-09T01:01:12.278Z,27.60
2023-02-09T01:02:12.153Z,24.80
2023-02-09T01:03:12.140Z,23.70
2023-02-09T01:04:12.344Z,23.40
2023-02-09T01:05:12.103Z,20.60
2023-02-09T01:06:12.061Z,19.20
2023-02-09T01:07:12.088Z,19.30
2023-02-09T01:08:12.049Z,22.50
2023-02-09T01:09:12.093Z,21.60
2023-02-09T01:10:12.043Z,19.50
2023-02-09T01:11:12.042Z,19.80
2023-02-09T01:12:11.974Z,19.00
2023-02-09T01:13:12.017Z,19.10
2023-02-09T01:14:11.988Z,18.50
2023-02-09T01:15:11.976Z,17.90
2023-02-09T01:16:11.956Z,19.00
2023-02-09T01:17:11.958Z,19.00
2023-02-09T01:18:11.920Z,18.50
2023-02-09T01:19:11.953Z,17.20
2023-02-09T01:20:11.908Z,17.60
2023-02-09T01:21:11.904Z,17.20
2023-02-09T01:22:11.856Z,19.50
2023-02-09T01:23:11.891Z,17.90
2023-02-09T01:24:11.817Z,18.00
2023-02-09T01:25:11.864Z,18.90
2023-02-09T01:26:11.821Z,17.80
2023-02-09T01:27:11.819Z,17.90
2023-02-09T01:28:11.842Z,17.70
2023-02-09T01:29:11.816Z,18.10
2023-02-09T01:30:11.766Z,17.50
2023-02-09T01:31:11.864Z,18.90
2023-02-09T01:32:11.780Z,17.70
2023-02-09T01:33:11.758Z,17.30
2023-02-09T01:34:11.711Z,17.80
2023-02-09T01:35:11.728Z,17.60
2023-02-09T01:36:11.682Z,18.10
2023-02-09T01:37:11.726Z,18.00
2023-02-09T01:38:11.670Z,18.20
2023-02-09T01:39:11.662Z,17.10
2023-02-09T01:40:11.660Z,17.70
2023-02-09T01:41:11.653Z,17.60
2023-02-09T01:42:11.620Z,17.50
2023-02-09T01:43:11.637Z,18.00
2023-02-09T01:44:11.594Z,17.40
2023-02-09T01:45:11.588Z,17.10
2023-02-09T01:46:11.583Z,18.00
2023-02-09T01:47:11.571Z,17.30
2023-02-09T01:48:11.557Z,17.40
2023-02-09T01:49:11.563Z,16.50
2023-02-09T01:50:11.565Z,17.00
2023-02-09T01:51:11.561Z,17.70
2023-02-09T01:52:11.501Z,16.60
2023-02-09T01:53:11.492Z,17.20
2023-02-09T01:54:11.453Z,16.90
2023-02-09T01:55:11.477Z,16.80
2023-02-09T01:56:11.448Z,17.00
2023-02-09T01:57:11.439Z,15.80
2023-02-09T01:58:11.412Z,16.80
2023-02-09T01:59:11.413Z,16.40
2023-02-09T02:00:11.389Z,16.60
2023-02-09T02:01:11.479Z,16.80
2023-02-09T02:02:11.375Z,17.00
2023-02-09T02:03:11.364Z,16.10
2023-02-09T02:04:11.350Z,16.50
2023-02-09T02:05:11.339Z,16.70
2023-02-09T02:06:11.296Z,16.60
2023-02-09T02:07:11.328Z,17.30
2023-02-09T02:08:11.298Z,16.10
2023-02-09T02:09:11.309Z,16.70
2023-02-09T02:10:11.254Z,17.20
2023-02-09T02:11:11.264Z,17.50
2023-02-09T02:12:11.222Z,17.60
2023-02-09T02:13:11.262Z,16.30
2023-02-09T02:14:11.207Z,16.50
2023-02-09T02:15:11.278Z,16.80
2023-02-09T02:16:11.272Z,16.60
2023-02-09T02:17:11.181Z,17.10
2023-02-09T02:18:11.187Z,17.30
2023-02-09T02:19:11.164Z,17.60
2023-02-09T02:20:11.128Z,17.10
2023-02-09T02:21:11.139Z,16.70
2023-02-09T02:22:11.088Z,16.00
2023-02-09T02:23:11.109Z,16.60
2023-02-09T02:24:11.093Z,16.60
2023-02-09T02:25:11.084Z,16.30
2023-02-09T02:26:11.038Z,17.10
2023-02-09T02:27:11.043Z,17.20
2023-02-09T02:28:11.058Z,17.60
2023-02-09T02:29:11.075Z,18.20
2023-02-09T02:30:11.005Z,18.70
2023-02-09T02:31:11.108Z,18.30
2023-02-09T02:32:10.973Z,18.90
2023-02-09T02:33:10.974Z,21.60
2023-02-09T02:34:10.952Z,20.00
2023-02-09T02:35:11.013Z,17.60
2023-02-09T02:36:10.911Z,17.60
2023-02-09T02:37:10.920Z,17.50
2023-02-09T02:38:10.887Z,18.10
2023-02-09T02:39:10.906Z,17.60
2023-02-09T02:40:10.914Z,16.60
2023-02-09T02:41:10.875Z,17.10
2023-02-09T02:42:10.833Z,17.00
2023-02-09T02:43:10.860Z,17.60
2023-02-09T02:44:10.825Z,17.80
2023-02-09T02:45:10.832Z,17.00
2023-02-09T02:46:10.806Z,18.30
2023-02-09T02:47:10.831Z,17.90
2023-02-09T02:48:10.752Z,17.60
2023-02-09T02:49:10.792Z,17.20
2023-02-09T02:50:10.751Z,18.30
2023-02-09T02:51:10.764Z,18.30
2023-02-09T02:52:10.737Z,17.20
2023-02-09T02:53:10.728Z,17.20
2023-02-09T02:54:10.699Z,16.90
2023-02-09T02:55:10.713Z,16.70
2023-02-09T02:56:10.692Z,17.70
2023-02-09T02:57:10.683Z,17.10
2023-02-09T02:58:10.633Z,17.90
2023-02-09T02:59:10.669Z,17.10
2023-02-09T03:00:10.651Z,16.70
2023-02-09T03:01:10.667Z,18.00
2023-02-09T03:02:10.581Z,17.00
2023-02-09T03:03:10.595Z,17.80
2023-02-09T03:04:10.591Z,17.30
2023-02-09T03:05:10.624Z,17.90
2023-02-09T03:06:10.556Z,16.90
2023-02-09T03:07:10.549Z,18.00
2023-02-09T03:08:10.523Z,18.30
2023-02-09T03:09:10.539Z,18.50
2023-02-09T03:10:10.511Z,18.80
2023-02-09T03:11:10.556Z,19.80
2023-02-09T03:12:10.472Z,19.10
2023-02-09T03:13:10.484Z,19.50
2023-02-09T03:14:10.436Z,18.80
2023-02-09T03:19:51.269Z,17.50
2023-02-09T03:20:52.259Z,17.60
2023-02-09T03:21:52.256Z,17.20
2023-02-09T03:22:52.196Z,17.20
2023-02-09T03:23:52.226Z,17.10
2023-02-09T03:24:52.167Z,19.20
2023-02-09T03:25:52.181Z,18.90
2023-02-09T03:26:52.147Z,17.80
2023-02-09T03:27:52.232Z,17.40
2023-02-09T03:28:52.120Z,17.30
2023-02-09T03:29:52.140Z,18.70
2023-02-09T03:30:52.206Z,18.30
2023-02-09T03:31:52.206Z,19.00
2023-02-09T03:32:52.078Z,21.20
2023-02-09T03:33:52.086Z,18.50
2023-02-09T03:34:52.050Z,18.30
2023-02-09T03:35:52.100Z,18.50
2023-02-09T03:36:52.045Z,19.00
2023-02-09T03:37:52.059Z,18.10
2023-02-09T03:38:51.992Z,18.00
2023-02-09T03:39:52.006Z,17.90
2023-02-09T03:40:52.002Z,18.80
2023-02-09T03:41:52.005Z,22.80
2023-02-09T03:42:51.948Z,23.80
2023-02-09T03:43:51.966Z,24.10
2023-02-09T03:44:51.916Z,22.10
2023-02-09T03:45:51.934Z,22.00
2023-02-09T03:46:52.050Z,19.50
2023-02-09T03:47:51.924Z,19.10
2023-02-09T03:48:51.885Z,19.50
2023-02-09T03:49:51.910Z,18.50
2023-02-09T03:50:51.872Z,18.20
2023-02-09T03:51:51.865Z,18.20
2023-02-09T03:52:51.828Z,18.20
2023-02-09T03:53:51.840Z,18.80
2023-02-09T03:54:51.811Z,18.30
2023-02-09T03:55:51.809Z,18.40
2023-02-09T03:56:51.788Z,18.40
2023-02-09T03:57:51.785Z,18.90
2023-02-09T03:58:51.780Z,18.80
2023-02-09T03:59:51.747Z,18.50
2023-02-09T04:00:51.806Z,17.80
2023-02-09T04:01:51.737Z,18.20
2023-02-09T04:02:51.784Z,18.70
2023-02-09T04:03:51.719Z,17.80
2023-02-09T04:04:51.680Z,18.40
2023-02-09T04:05:51.680Z,18.40
2023-02-09T04:06:51.653Z,16.50
2023-02-09T04:07:51.683Z,17.60
2023-02-09T04:08:51.628Z,16.90
2023-02-09T04:09:51.625Z,18.10
2023-02-09T04:10:51.605Z,17.60
2023-02-09T04:11:51.617Z,17.30
2023-02-09T04:12:51.620Z,19.80
2023-02-09T04:13:51.596Z,18.80
2023-02-09T04:14:51.603Z,25.70
2023-02-09T04:15:51.602Z,24.40
2023-02-09T04:16:51.517Z,18.70
2023-02-09T04:17:51.562Z,19.20
2023-02-09T04:18:51.503Z,19.20
2023-02-09T04:19:51.516Z,17.50
2023-02-09T04:20:51.514Z,18.20
2023-02-09T04:21:51.469Z,17.30
2023-02-09T04:22:51.474Z,17.30
2023-02-09T04:23:51.430Z,16.30
2023-02-09T04:24:51.446Z,17.50
2023-02-09T04:25:51.429Z,17.80
2023-02-09T04:26:51.426Z,17.80
2023-02-09T04:27:51.403Z,17.40
2023-02-09T04:28:51.413Z,16.90
2023-02-09T04:29:51.369Z,17.20
2023-02-09T04:30:51.411Z,18.30
2023-02-09T04:31:51.388Z,19.30
2023-02-09T04:32:51.359Z,17.90
2023-02-09T04:33:51.331Z,18.00
2023-02-09T04:34:51.362Z,18.10
2023-02-09T04:35:51.299Z,18.50
2023-02-09T04:36:51.318Z,16.30
2023-02-09T04:37:51.277Z,17.10
2023-02-09T04:38:51.296Z,17.90
2023-02-09T04:39:51.272Z,16.80
2023-02-09T04:40:51.280Z,16.70
2023-02-09T04:41:51.229Z,32.20
2023-02-09T04:42:51.220Z,18.50
2023-02-09T04:43:51.187Z,16.50
2023-02-09T04:44:51.206Z,17.10
2023-02-09T04:45:51.305Z,20.60
2023-02-09T04:46:51.224Z,22.20
2023-02-09T04:47:51.140Z,18.80
2023-02-09T04:48:51.150Z,18.10
2023-02-09T04:49:51.121Z,18.40
2023-02-09T04:50:51.126Z,18.20
2023-02-09T04:51:51.121Z,18.70
2023-02-09T04:52:51.105Z,16.80
2023-02-09T04:53:51.060Z,16.90
2023-02-09T04:54:51.096Z,16.70
2023-02-09T04:55:51.053Z,17.60
2023-02-09T04:56:51.053Z,17.20
2023-02-09T04:57:51.031Z,16.90
2023-02-09T04:58:51.032Z,17.30
2023-02-09T04:59:51.003Z,17.90
2023-02-09T05:00:51.029Z,18.90
2023-02-09T05:01:50.984Z,17.90
2023-02-09T05:02:51.032Z,18.50
2023-02-09T05:03:50.990Z,19.60
2023-02-09T05:04:50.957Z,20.10
2023-02-09T05:05:50.921Z,20.40
2023-02-09T05:06:50.931Z,20.40
2023-02-09T05:07:50.893Z,19.40
2023-02-09T05:08:50.916Z,18.90
2023-02-09T05:09:50.880Z,19.30
2023-02-09T05:10:50.894Z,19.70
2023-02-09T05:11:50.853Z,19.90
2023-02-09T05:12:50.871Z,22.80
2023-02-09T05:13:50.829Z,24.00
2023-02-09T05:14:50.840Z,22.80
2023-02-09T05:15:50.806Z,23.70
2023-02-09T05:16:50.890Z,21.00
2023-02-09T05:17:50.793Z,22.10
2023-02-09T05:18:50.789Z,23.70
2023-02-09T05:19:50.749Z,22.70
2023-02-09T05:20:50.778Z,22.00
2023-02-09T05:21:50.717Z,22.90
2023-02-09T05:22:50.765Z,22.60
2023-02-09T05:23:50.696Z,21.50
2023-02-09T05:24:50.765Z,21.20
2023-02-09T05:25:50.671Z,21.60
2023-02-09T05:26:51.667Z,21.70
2023-02-09T05:27:50.705Z,21.10
2023-02-09T05:28:50.657Z,20.40
2023-02-09T05:29:50.629Z,20.30
2023-02-09T05:30:50.658Z,19.80
2023-02-09T05:31:50.676Z,20.70
2023-02-09T05:32:50.639Z,21.40
2023-02-09T05:33:50.569Z,19.60
2023-02-09T05:34:50.601Z,19.90
2023-02-09T05:35:50.565Z,20.30
2023-02-09T05:36:50.565Z,20.50
2023-02-09T05:37:50.556Z,20.00
2023-02-09T05:38:50.533Z,20.50
2023-02-09T05:39:50.505Z,21.80
2023-02-09T05:40:51.045Z,21.00
2023-02-09T05:41:50.498Z,21.00
2023-02-09T05:42:50.556Z,19.80
2023-02-09T05:43:50.469Z,20.40
2023-02-09T05:44:50.468Z,20.10
2023-02-09T05:45:50.526Z,20.00
2023-02-09T05:46:50.461Z,19.80
2023-02-09T05:47:50.408Z,19.50
2023-02-09T05:48:50.415Z,19.50
2023-02-09T05:49:50.380Z,20.30
2023-02-09T05:50:50.392Z,19.90
2023-02-09T05:51:50.373Z,19.70
2023-02-09T05:52:50.356Z,19.10
2023-02-09T05:53:50.314Z,17.90
2023-02-09T05:54:50.351Z,18.80
2023-02-09T05:55:50.305Z,17.60
2023-02-09T05:56:50.303Z,18.50
2023-02-09T05:57:50.290Z,17.40
2023-02-09T05:58:50.290Z,18.80
2023-02-09T05:59:50.294Z,18.40
2023-02-09T06:00:50.277Z,18.80
2023-02-09T06:01:50.268Z,17.30
2023-02-09T06:02:50.263Z,18.20
2023-02-09T06:03:50.209Z,17.30
2023-02-09T06:04:50.220Z,19.00
2023-02-09T06:05:50.170Z,20.00
2023-02-09T06:06:50.200Z,20.60
2023-02-09T06:07:50.149Z,21.00
2023-02-09T06:08:50.179Z,21.90
2023-02-09T06:09:50.132Z,22.10
2023-02-09T06:10:50.151Z,23.00
2023-02-09T06:11:50.118Z,21.50
2023-02-09T06:12:50.099Z,22.20
2023-02-09T06:13:50.079Z,22.20
2023-02-09T06:14:50.100Z,21.40
2023-02-09T06:15:50.079Z,23.00
2023-02-09T06:16:50.084Z,25.70
2023-02-09T06:17:50.028Z,23.00
2023-02-09T06:18:50.042Z,23.10
2023-02-09T06:19:50.016Z,22.30
2023-02-09T06:20:50.023Z,20.70
2023-02-09T06:21:49.979Z,19.80
2023-02-09T06:22:50.011Z,19.80
2023-02-09T06:23:49.945Z,19.30
2023-02-09T06:24:49.970Z,20.30
2023-02-09T06:25:49.959Z,20.10
2023-02-09T06:26:49.945Z,18.40
2023-02-09T06:27:50.067Z,19.10
2023-02-09T06:28:49.947Z,17.70
2023-02-09T06:29:49.880Z,18.70
2023-02-09T06:30:50.552Z,18.70
2023-02-09T06:31:50.019Z,19.00
2023-02-09T06:32:49.915Z,18.40
2023-02-09T06:33:49.835Z,19.00
2023-02-09T06:34:49.890Z,18.20
2023-02-09T06:35:52.234Z,18.40
2023-02-09T06:36:49.813Z,17.60
2023-02-09T06:37:49.787Z,18.20
2023-02-09T06:38:49.792Z,18.50
2023-02-09T06:39:49.790Z,17.70
2023-02-09T06:40:49.785Z,18.20
2023-02-09T06:41:49.753Z,18.10
2023-02-09T06:42:49.779Z,16.50
2023-02-09T06:43:49.725Z,18.20
2023-02-09T06:44:49.733Z,17.70
2023-02-09T06:45:49.703Z,17.80
2023-02-09T06:46:49.719Z,16.50
2023-02-09T06:47:49.676Z,17.90
2023-02-09T06:48:49.675Z,18.70
2023-02-09T06:49:49.670Z,18.00
2023-02-09T06:50:49.661Z,17.10
2023-02-09T06:51:49.646Z,17.50
2023-02-09T06:52:49.625Z,17.40
2023-02-09T06:53:49.581Z,17.40
2023-02-09T06:54:49.606Z,17.40
2023-02-09T06:55:49.568Z,17.30
2023-02-09T06:56:49.620Z,17.20
2023-02-09T06:57:49.532Z,17.40
2023-02-09T06:58:49.585Z,16.80
2023-02-09T06:59:49.540Z,17.30
2023-02-09T07:00:49.540Z,17.60
2023-02-09T07:01:49.533Z,18.20
2023-02-09T07:02:49.582Z,17.70
2023-02-09T07:03:49.459Z,18.40
2023-02-09T07:04:49.509Z,17.70
2023-02-09T07:05:49.438Z,17.30
2023-02-09T07:06:49.455Z,17.40
2023-02-09T07:07:49.415Z,16.90
2023-02-09T07:08:49.441Z,17.00
2023-02-09T07:09:49.422Z,17.50
2023-02-09T07:10:49.421Z,17.60
2023-02-09T07:11:49.344Z,17.60
2023-02-09T07:12:49.399Z,17.70
2023-02-09T07:13:49.330Z,17.40
2023-02-09T07:14:49.388Z,17.40
2023-02-09T07:15:49.408Z,16.80
2023-02-09T07:16:49.356Z,18.20
2023-02-09T07:17:49.288Z,17.90
2023-02-09T07:18:49.354Z,16.80
2023-02-09T07:19:49.323Z,17.50
2023-02-09T07:20:49.304Z,17.60
2023-02-09T07:21:49.266Z,16.90
2023-02-09T07:22:49.255Z,16.30
2023-02-09T07:23:49.216Z,17.30
2023-02-09T07:24:49.250Z,17.80
2023-02-09T07:25:49.217Z,17.30
2023-02-09T07:26:49.213Z,17.30
2023-02-09T07:27:49.196Z,17.20
2023-02-09T07:28:49.179Z,17.50
2023-02-09T07:29:49.139Z,17.70
2023-02-09T07:30:49.409Z,18.40
2023-02-09T07:31:49.183Z,17.40
2023-02-09T07:32:49.144Z,17.60
2023-02-09T07:33:49.127Z,17.80
2023-02-09T07:34:49.114Z,17.30
2023-02-09T07:35:49.088Z,17.70
2023-02-09T07:36:49.079Z,17.30
2023-02-09T07:37:49.057Z,17.60
2023-02-09T07:38:49.048Z,19.50
2023-02-09T07:39:49.013Z,19.50
2023-02-09T07:40:49.030Z,19.60
2023-02-09T07:41:49.010Z,18.50
2023-02-09T07:42:49.001Z,18.90
2023-02-09T07:43:48.974Z,19.10
2023-02-09T07:44:48.985Z,18.10
2023-02-09T07:45:48.937Z,18.50
2023-02-09T07:46:49.028Z,17.70
2023-02-09T07:47:48.939Z,17.90
2023-02-09T07:48:48.921Z,17.60
2023-02-09T07:49:48.947Z,18.10
2023-02-09T07:50:48.902Z,18.00
2023-02-09T07:51:48.894Z,18.40
2023-02-09T07:52:48.880Z,17.70
2023-02-09T07:53:48.865Z,18.40
2023-02-09T07:54:48.848Z,17.40
2023-02-09T07:55:48.883Z,18.50
2023-02-09T07:56:48.880Z,18.60
2023-02-09T07:57:48.802Z,18.70
2023-02-09T07:58:48.783Z,18.40
2023-02-09T07:59:48.751Z,19.40
2023-02-09T08:00:49.271Z,22.70
2023-02-09T08:01:48.822Z,30.40
2023-02-09T08:02:48.754Z,28.40
2023-02-09T08:03:48.710Z,26.10
2023-02-09T08:04:48.826Z,25.40
2023-02-09T08:05:48.994Z,26.90
2023-02-09T08:06:48.697Z,26.30
2023-02-09T08:07:48.688Z,25.00
2023-02-09T08:08:48.724Z,24.70
2023-02-09T08:09:48.632Z,27.80
2023-02-09T08:10:48.643Z,26.80
2023-02-09T08:11:48.681Z,24.20
2023-02-09T08:12:48.607Z,22.30
2023-02-09T08:13:48.657Z,21.70
2023-02-09T08:14:48.671Z,21.30
2023-02-09T08:15:48.960Z,23.30
2023-02-09T08:16:48.579Z,23.40
2023-02-09T08:17:48.543Z,22.60
2023-02-09T08:18:48.552Z,22.80
2023-02-09T08:19:48.522Z,23.90
2023-02-09T08:20:48.495Z,24.30
2023-02-09T08:21:48.481Z,23.50
2023-02-09T08:22:48.491Z,28.70
2023-02-09T08:23:48.500Z,31.80
2023-02-09T08:24:48.476Z,30.60
2023-02-09T08:25:48.787Z,32.20
2023-02-09T08:26:48.443Z,29.80
2023-02-09T08:27:48.421Z,28.10
2023-02-09T08:28:48.499Z,28.90
2023-02-09T08:29:49.130Z,29.00
2023-02-09T08:30:48.456Z,26.20
2023-02-09T08:31:48.408Z,24.10
2023-02-09T08:32:48.352Z,21.60
2023-02-09T08:33:48.330Z,21.70
2023-02-09T08:34:48.337Z,20.20
2023-02-09T08:35:48.747Z,20.90
2023-02-09T08:36:48.322Z,20.30
2023-02-09T08:37:48.294Z,20.20
2023-02-09T08:38:48.326Z,20.40
2023-02-09T08:39:48.284Z,20.50
2023-02-09T08:40:48.232Z,19.50
2023-02-09T08:41:48.273Z,20.40
2023-02-09T08:42:48.197Z,19.90
2023-02-09T08:43:48.193Z,21.40
2023-02-09T08:44:48.190Z,21.60
2023-02-09T08:45:48.894Z,21.40
2023-02-09T08:46:48.414Z,21.70
2023-02-09T08:47:48.171Z,18.70
2023-02-09T08:48:48.152Z,20.40
2023-02-09T08:49:48.178Z,19.30
2023-02-09T08:50:48.119Z,18.50
2023-02-09T08:51:48.120Z,19.10
2023-02-09T08:52:48.072Z,19.50
2023-02-09T08:53:48.105Z,19.10
2023-02-09T08:54:48.088Z,19.20
2023-02-09T08:55:48.673Z,18.80
2023-02-09T08:56:48.048Z,18.70
2023-02-09T08:57:48.038Z,19.60
2023-02-09T08:58:48.002Z,19.90
2023-02-09T08:59:48.055Z,19.40
2023-02-09T09:00:48.055Z,19.30
2023-02-09T09:01:48.056Z,19.70
2023-02-09T09:02:47.972Z,19.20
2023-02-09T09:03:48.090Z,18.40
2023-02-09T09:04:47.925Z,19.30
2023-02-09T09:05:48.209Z,18.00
2023-02-09T09:06:47.943Z,18.20
2023-02-09T09:07:47.924Z,17.60
2023-02-09T09:08:47.882Z,18.70
2023-02-09T09:09:47.916Z,18.40
2023-02-09T09:10:47.849Z,17.90
2023-02-09T09:11:47.874Z,18.30
2023-02-09T09:12:47.827Z,19.10
2023-02-09T09:13:47.838Z,18.10
2023-02-09T09:14:47.841Z,17.60
2023-02-09T09:15:48.228Z,18.80
2023-02-09T09:16:47.809Z,17.80
2023-02-09T09:17:47.785Z,19.00
2023-02-09T09:18:47.790Z,17.80
2023-02-09T09:19:47.762Z,17.90
2023-02-09T09:20:47.719Z,17.80
2023-02-09T09:21:47.730Z,18.50
2023-02-09T09:22:47.706Z,17.50
2023-02-09T09:23:47.733Z,17.70
2023-02-09T09:24:47.660Z,18.00
2023-02-09T09:25:48.036Z,17.30
2023-02-09T09:26:47.650Z,17.40
2023-02-09T09:27:47.659Z,18.00
2023-02-09T09:28:47.626Z,16.60
2023-02-09T09:29:47.661Z,17.30
2023-02-09T09:30:47.606Z,18.10
2023-02-09T09:31:47.627Z,18.30
2023-02-09T09:32:47.611Z,18.40
2023-02-09T09:33:47.585Z,18.30
2023-02-09T09:34:47.531Z,17.40
2023-02-09T09:35:47.935Z,17.00
2023-02-09T09:36:47.512Z,19.40
2023-02-09T09:37:47.537Z,18.80
2023-02-09T09:38:47.508Z,17.80
2023-02-09T09:39:47.503Z,18.30
2023-02-09T09:40:47.467Z,19.00
2023-02-09T09:41:47.487Z,18.30
2023-02-09T09:42:47.451Z,19.30
2023-02-09T09:43:47.446Z,19.80
2023-02-09T09:44:47.549Z,18.70
2023-02-09T09:45:47.853Z,19.10
2023-02-09T09:46:47.378Z,19.10
2023-02-09T09:47:47.418Z,19.30
2023-02-09T09:48:47.376Z,18.30
2023-02-09T09:49:47.413Z,19.90
2023-02-09T09:50:47.365Z,19.50
2023-02-09T09:51:47.362Z,19.20
2023-02-09T09:52:47.299Z,19.30
2023-02-09T09:53:47.344Z,19.70
2023-02-09T09:54:47.285Z,19.90
2023-02-09T09:55:47.651Z,18.60
2023-02-09T09:56:47.256Z,19.60
2023-02-09T09:57:47.261Z,19.00
2023-02-09T09:58:47.253Z,19.00
2023-02-09T09:59:47.235Z,19.00
2023-02-09T10:00:47.207Z,18.10
2023-02-09T10:01:47.206Z,17.90
2023-02-09T10:02:47.160Z,18.10
2023-02-09T10:03:47.206Z,18.20
2023-02-09T10:04:47.174Z,19.00
2023-02-09T10:05:47.581Z,18.80
2023-02-09T10:06:47.116Z,18.40
2023-02-09T10:07:47.157Z,17.90
2023-02-09T10:08:47.118Z,18.60
2023-02-09T10:09:47.110Z,18.60
2023-02-09T10:10:47.349Z,19.20
2023-02-09T10:11:47.066Z,19.30
2023-02-09T10:12:47.034Z,20.10
2023-02-09T10:13:47.077Z,19.60
2023-02-09T10:14:47.011Z,19.70
2023-02-09T10:15:47.382Z,19.30
2023-02-09T10:16:47.060Z,20.00
2023-02-09T10:17:46.991Z,18.40
2023-02-09T10:18:46.972Z,18.50
2023-02-09T10:19:46.955Z,19.90
2023-02-09T10:20:46.938Z,19.80
2023-02-09T10:21:46.935Z,19.70
2023-02-09T10:22:46.899Z,20.50
2023-02-09T10:23:46.913Z,20.00
2023-02-09T10:24:46.893Z,19.50
2023-02-09T10:25:47.262Z,20.40
2023-02-09T10:26:46.853Z,19.90
2023-02-09T10:27:46.855Z,20.00
2023-02-09T10:28:46.853Z,19.90
2023-02-09T10:29:46.847Z,21.00
2023-02-09T10:30:46.970Z,20.10
2023-02-09T10:31:47.002Z,21.00
2023-02-09T10:32:46.758Z,20.00
2023-02-09T10:33:46.848Z,20.30
2023-02-09T10:34:46.764Z,20.30
2023-02-09T10:35:47.165Z,20.70
2023-02-09T10:36:46.717Z,20.40
2023-02-09T10:37:46.729Z,21.20
2023-02-09T10:38:46.679Z,21.30
2023-02-09T10:39:46.735Z,21.60
2023-02-09T10:40:46.683Z,20.70
2023-02-09T10:41:46.682Z,21.30
2023-02-09T10:42:46.621Z,21.20
2023-02-09T10:43:46.661Z,21.40
2023-02-09T10:44:46.631Z,22.20
2023-02-09T10:45:46.973Z,22.50
2023-02-09T10:46:46.600Z,21.20
2023-02-09T10:47:46.592Z,21.60
2023-02-09T10:48:46.562Z,21.80
2023-02-09T10:49:46.598Z,22.10
2023-02-09T10:50:46.552Z,20.60
2023-02-09T10:51:46.552Z,21.70
2023-02-09T10:52:46.488Z,21.50
2023-02-09T10:53:46.530Z,22.50
2023-02-09T10:54:46.486Z,22.10
2023-02-09T10:55:46.835Z,21.90
2023-02-09T10:56:46.479Z,23.60
2023-02-09T10:57:46.485Z,21.80
2023-02-09T10:58:46.414Z,21.40
2023-02-09T10:59:46.431Z,22.40
2023-02-09T11:00:46.445Z,20.90
2023-02-09T11:01:46.443Z,21.10
2023-02-09T11:02:46.377Z,22.50
2023-02-09T11:03:46.402Z,21.90
2023-02-09T11:04:46.403Z,23.80
2023-02-09T11:05:46.667Z,22.90
2023-02-09T11:06:46.429Z,23.20
2023-02-09T11:07:46.340Z,22.90
2023-02-09T11:08:46.335Z,23.90
2023-02-09T11:09:46.308Z,23.80
2023-02-09T11:10:46.272Z,23.20
2023-02-09T11:11:46.293Z,25.40
2023-02-09T11:12:46.291Z,26.60
2023-02-09T11:13:46.249Z,23.20
2023-02-09T11:14:46.203Z,23.90
2023-02-09T11:15:46.581Z,23.20
2023-02-09T11:16:46.294Z,23.60
2023-02-09T11:17:46.202Z,24.10
2023-02-09T11:18:46.197Z,25.40
2023-02-09T11:19:46.169Z,23.90
2023-02-09T11:20:46.149Z,24.80
2023-02-09T11:21:46.195Z,24.70
2023-02-09T11:22:46.117Z,24.00
2023-02-09T11:23:46.143Z,25.00
2023-02-09T11:24:46.088Z,24.50
2023-02-09T11:25:46.566Z,25.70
2023-02-09T11:26:46.073Z,24.80
2023-02-09T11:27:46.067Z,24.30
2023-02-09T11:28:46.024Z,25.20
2023-02-09T11:29:46.070Z,24.00
2023-02-09T11:30:46.534Z,25.00
2023-02-09T11:31:46.197Z,26.10
2023-02-09T11:32:46.004Z,24.90
2023-02-09T11:33:45.986Z,25.10
2023-02-09T11:34:45.963Z,24.10
2023-02-09T11:35:45.979Z,24.80
2023-02-09T11:36:45.921Z,24.90
2023-02-09T11:37:45.936Z,25.20
2023-02-09T11:38:45.901Z,23.10
2023-02-09T11:39:45.930Z,24.40
2023-02-09T11:40:46.301Z,24.10
2023-02-09T11:41:45.899Z,25.10
2023-02-09T11:42:45.868Z,24.30
2023-02-09T11:43:45.885Z,24.10
2023-02-09T11:44:45.811Z,24.10
2023-02-09T11:45:45.837Z,23.70
2023-02-09T11:46:45.890Z,24.40
2023-02-09T11:47:45.811Z,24.70
2023-02-09T11:48:45.781Z,25.40
2023-02-09T11:49:45.778Z,25.00
2023-02-09T11:50:46.165Z,28.00
2023-02-09T11:51:45.789Z,26.60
2023-02-09T11:52:45.765Z,26.40
2023-02-09T11:53:45.746Z,26.30
2023-02-09T11:54:45.693Z,26.50
2023-02-09T11:55:45.702Z,25.90
2023-02-09T11:56:45.700Z,26.70
2023-02-09T11:57:45.701Z,25.90
2023-02-09T11:58:45.679Z,27.20
2023-02-09T11:59:45.648Z,26.30
2023-02-09T12:00:55.956Z,26.70
2023-02-09T12:01:45.638Z,26.10
2023-02-09T12:02:45.663Z,25.70
2023-02-09T12:03:45.614Z,27.20
2023-02-09T12:04:45.574Z,26.70
2023-02-09T12:05:45.574Z,26.70
2023-02-09T12:06:45.580Z,26.20
2023-02-09T12:07:45.566Z,26.80
2023-02-09T12:08:45.533Z,26.60
2023-02-09T12:09:45.523Z,28.70
2023-02-09T12:10:45.669Z,27.60
2023-02-09T12:11:45.490Z,27.70
2023-02-09T12:12:45.469Z,27.30
2023-02-09T12:13:45.473Z,26.80
2023-02-09T12:14:45.472Z,27.20
2023-02-09T12:15:45.506Z,26.70
2023-02-09T12:16:45.405Z,27.00
2023-02-09T12:17:45.428Z,28.10
2023-02-09T12:18:45.428Z,26.50
2023-02-09T12:19:45.441Z,27.00
2023-02-09T12:20:45.689Z,26.70
2023-02-09T12:21:45.381Z,26.20
2023-02-09T12:22:45.334Z,26.10
2023-02-09T12:23:45.347Z,27.20
2023-02-09T12:24:45.305Z,27.10
2023-02-09T12:25:45.346Z,26.80
2023-02-09T12:26:45.295Z,25.60
2023-02-09T12:27:45.283Z,25.40
2023-02-09T12:28:45.261Z,24.90
2023-02-09T12:29:45.261Z,26.10
2023-02-09T12:30:45.586Z,25.80
2023-02-09T12:31:46.446Z,25.40
2023-02-09T12:32:45.193Z,26.90
2023-02-09T12:33:45.215Z,25.20
2023-02-09T12:34:45.176Z,26.20
2023-02-09T12:35:45.193Z,25.50
2023-02-09T12:36:45.157Z,27.20
2023-02-09T12:37:45.197Z,26.50
2023-02-09T12:38:49.321Z,28.20
2023-02-09T12:39:45.143Z,29.10
2023-02-09T12:40:45.406Z,37.10
2023-02-09T12:41:45.163Z,27.30
2023-02-09T12:42:45.052Z,35.80
2023-02-09T12:43:45.144Z,28.50
2023-02-09T12:44:45.033Z,27.20
2023-02-09T12:45:45.592Z,27.70
2023-02-09T12:46:45.212Z,26.50
2023-02-09T12:47:45.030Z,26.30
2023-02-09T12:48:44.992Z,30.90
2023-02-09T12:49:45.006Z,29.20
2023-02-09T12:50:44.976Z,27.20
2023-02-09T12:51:44.971Z,24.70
2023-02-09T12:52:44.990Z,26.00
2023-02-09T12:53:44.925Z,24.30
2023-02-09T12:54:44.937Z,31.40
2023-02-09T12:55:45.384Z,31.50
2023-02-09T12:56:44.907Z,26.70